Terminal Aerodrome Forecast
Issued by NWS

Home | Current Version | Previous Version | Text Only | Print | Product List | Glossary On
Versions: 1 2 3 4 5 6 7 8 9 10 11 12 13 14
575
FTUS45 KFGZ 230547
TAFGCN
TAF
KGCN 230547Z 2306/2406 25007KT 5SM -SHSN BR FEW005 OVC011
      TEMPO 2306/2310 1SM -SHSN BR OVC004
     FM231600 24014G24KT 4SM -SHSN BR BKN012 OVC025=

USA.gov is the U.S. government's official web portal to all federal, state and local government web resources and services.